Terminal Aerodrome Forecast
Issued by NWS

Home | Current Version | Previous Version | Text Only | Print | Product List | Glossary On
Versions: 1 2 3 4 5 6 7 8 9 10 11 12 13 14
000
FTUS45 KSLC 271120
TAFENV
TAF
KENV 271120Z 2712/2812 VRB05KT P6SM BKN110
     FM271600 12008KT P6SM VCSH SCT070 BKN100
     FM280100 33011G16KT P6SM SCT070 BKN100
     FM280800 32007KT P6SM FEW070 SCT100
      AMD LTD TO CLD VIS AND WIND=

USA.gov is the U.S. government's official web portal to all federal, state and local government web resources and services.